sensor_id;sensor_type;location;lat;lon;timestamp;pressure;altitude;pressure_sealevel;temperature;humidity
79378;BME280;68959;53.132;17.984;2023-04-01T00:01:21;99075.34;;;9.94;82.51
79378;BME280;68959;53.132;17.984;2023-04-01T00:03:48;99075.30;;;9.97;82.36
79378;BME280;68959;53.132;17.984;2023-04-01T00:06:17;99074.41;;;9.99;82.56
79378;BME280;68959;53.132;17.984;2023-04-01T00:08:44;99071.90;;;9.98;82.31
79378;BME280;68959;53.132;17.984;2023-04-01T00:11:11;99070.80;;;9.98;82.74
79378;BME280;68959;53.132;17.984;2023-04-01T00:13:38;99069.73;;;9.98;82.51
79378;BME280;68959;53.132;17.984;2023-04-01T00:16:06;99067.91;;;9.98;82.58
79378;BME280;68959;53.132;17.984;2023-04-01T00:18:33;99065.19;;;9.99;82.51
79378;BME280;68959;53.132;17.984;2023-04-01T00:21:00;99065.33;;;10.00;82.73
79378;BME280;68959;53.132;17.984;2023-04-01T00:23:26;99066.01;;;10.05;82.75
79378;BME280;68959;53.132;17.984;2023-04-01T00:25:53;99062.79;;;10.08;82.45
79378;BME280;68959;53.132;17.984;2023-04-01T00:28:20;99067.05;;;10.08;82.67
79378;BME280;68959;53.132;17.984;2023-04-01T00:30:47;99068.06;;;10.02;82.46
79378;BME280;68959;53.132;17.984;2023-04-01T00:33:15;99064.92;;;9.98;82.37
79378;BME280;68959;53.132;17.984;2023-04-01T00:35:42;99061.95;;;9.96;82.56
79378;BME280;68959;53.132;17.984;2023-04-01T00:38:10;99061.66;;;9.91;82.45
79378;BME280;68959;53.132;17.984;2023-04-01T00:40:43;99062.17;;;9.85;82.54
79378;BME280;68959;53.132;17.984;2023-04-01T00:43:17;99065.03;;;9.82;82.59
79378;BME280;68959;53.132;17.984;2023-04-01T00:45:48;99060.65;;;9.80;82.78
79378;BME280;68959;53.132;17.984;2023-04-01T00:48:22;99061.83;;;9.83;82.77
79378;BME280;68959;53.132;17.984;2023-04-01T00:50:54;99059.14;;;9.84;83.06
79378;BME280;68959;53.132;17.984;2023-04-01T00:53:23;99055.41;;;9.83;82.80
79378;BME280;68959;53.132;17.984;2023-04-01T00:56:01;99058.02;;;9.82;82.68
79378;BME280;68959;53.132;17.984;2023-04-01T00:58:34;99057.98;;;9.81;82.98
79378;BME280;68959;53.132;17.984;2023-04-01T01:01:02;99056.81;;;9.79;82.82
79378;BME280;68959;53.132;17.984;2023-04-01T01:03:29;99055.82;;;9.77;83.29
79378;BME280;68959;53.132;17.984;2023-04-01T01:08:48;99053.54;;;9.77;83.25
79378;BME280;68959;53.132;17.984;2023-04-01T01:11:24;99052.36;;;9.78;83.30
79378;BME280;68959;53.132;17.984;2023-04-01T01:14:12;99049.04;;;9.78;82.82
79378;BME280;68959;53.132;17.984;2023-04-01T01:16:51;99048.66;;;9.76;83.05
79378;BME280;68959;53.132;17.984;2023-04-01T01:19:50;99045.52;;;9.71;83.25
79378;BME280;68959;53.132;17.984;2023-04-01T01:28:53;99051.00;;;9.63;83.51
79378;BME280;68959;53.132;17.984;2023-04-01T01:31:37;99051.63;;;9.63;83.37
79378;BME280;68959;53.132;17.984;2023-04-01T01:37:01;99047.84;;;9.59;83.63
79378;BME280;68959;53.132;17.984;2023-04-01T01:39:31;99053.44;;;9.58;83.63
79378;BME280;68959;53.132;17.984;2023-04-01T01:42:06;99051.29;;;9.55;83.37
79378;BME280;68959;53.132;17.984;2023-04-01T01:44:36;99049.80;;;9.52;83.89
79378;BME280;68959;53.132;17.984;2023-04-01T01:47:05;99050.47;;;9.46;83.96
79378;BME280;68959;53.132;17.984;2023-04-01T01:49:33;99050.36;;;9.43;83.68
79378;BME280;68959;53.132;17.984;2023-04-01T01:52:02;99050.20;;;9.40;83.74
79378;BME280;68959;53.132;17.984;2023-04-01T01:54:30;99047.27;;;9.38;83.58
79378;BME280;68959;53.132;17.984;2023-04-01T01:57:07;99048.44;;;9.35;83.72
79378;BME280;68959;53.132;17.984;2023-04-01T01:59:38;99052.52;;;9.31;83.79
79378;BME280;68959;53.132;17.984;2023-04-01T02:02:08;99052.98;;;9.29;83.78
79378;BME280;68959;53.132;17.984;2023-04-01T02:04:42;99054.70;;;9.26;83.76
79378;BME280;68959;53.132;17.984;2023-04-01T02:07:18;99051.80;;;9.22;84.00
79378;BME280;68959;53.132;17.984;2023-04-01T02:09:47;99053.41;;;9.19;83.90
79378;BME280;68959;53.132;17.984;2023-04-01T02:12:16;99049.41;;;9.16;83.97
79378;BME280;68959;53.132;17.984;2023-04-01T02:17:20;99058.09;;;9.13;84.06
79378;BME280;68959;53.132;17.984;2023-04-01T02:19:50;99054.83;;;9.10;83.92
79378;BME280;68959;53.132;17.984;2023-04-01T02:22:24;99057.45;;;9.08;84.03
79378;BME280;68959;53.132;17.984;2023-04-01T02:24:54;99057.19;;;9.08;84.06
79378;BME280;68959;53.132;17.984;2023-04-01T02:27:24;99056.63;;;9.08;83.86
79378;BME280;68959;53.132;17.984;2023-04-01T02:29:52;99053.80;;;9.07;84.02
79378;BME280;68959;53.132;17.984;2023-04-01T02:32:20;99057.88;;;9.03;83.97
79378;BME280;68959;53.132;17.984;2023-04-01T02:34:47;99059.67;;;9.01;83.85
79378;BME280;68959;53.132;17.984;2023-04-01T02:37:15;99060.46;;;9.00;83.95
79378;BME280;68959;53.132;17.984;2023-04-01T02:39:42;99067.73;;;9.00;83.87
79378;BME280;68959;53.132;17.984;2023-04-01T02:42:09;99066.08;;;9.00;83.70
79378;BME280;68959;53.132;17.984;2023-04-01T02:44:37;99070.20;;;9.01;83.82
79378;BME280;68959;53.132;17.984;2023-04-01T02:47:03;99069.66;;;9.01;83.88
79378;BME280;68959;53.132;17.984;2023-04-01T02:49:30;99071.27;;;8.98;84.09
79378;BME280;68959;53.132;17.984;2023-04-01T02:51:56;99074.95;;;8.94;83.98
79378;BME280;68959;53.132;17.984;2023-04-01T02:54:23;99078.00;;;8.93;83.95
79378;BME280;68959;53.132;17.984;2023-04-01T02:56:50;99079.40;;;8.92;84.17
79378;BME280;68959;53.132;17.984;2023-04-01T02:59:16;99083.27;;;8.92;84.02
79378;BME280;68959;53.132;17.984;2023-04-01T03:01:43;99085.27;;;8.90;84.04
79378;BME280;68959;53.132;17.984;2023-04-01T03:04:10;99084.31;;;8.88;84.19
79378;BME280;68959;53.132;17.984;2023-04-01T03:06:36;99087.65;;;8.86;84.04
79378;BME280;68959;53.132;17.984;2023-04-01T03:09:03;99091.11;;;8.84;84.30
79378;BME280;68959;53.132;17.984;2023-04-01T03:11:30;99090.02;;;8.83;84.17
79378;BME280;68959;53.132;17.984;2023-04-01T03:13:56;99089.94;;;8.81;84.25
79378;BME280;68959;53.132;17.984;2023-04-01T03:16:23;99094.89;;;8.79;84.27
79378;BME280;68959;53.132;17.984;2023-04-01T03:18:50;99091.73;;;8.76;84.35
79378;BME280;68959;53.132;17.984;2023-04-01T03:21:21;99096.20;;;8.71;84.01
79378;BME280;68959;53.132;17.984;2023-04-01T03:23:48;99096.77;;;8.70;84.21
79378;BME280;68959;53.132;17.984;2023-04-01T03:26:15;99098.80;;;8.70;84.29
79378;BME280;68959;53.132;17.984;2023-04-01T03:28:43;99097.51;;;8.72;84.31
79378;BME280;68959;53.132;17.984;2023-04-01T03:31:10;99102.42;;;8.72;84.24
79378;BME280;68959;53.132;17.984;2023-04-01T03:33:41;99101.15;;;8.72;84.17
79378;BME280;68959;53.132;17.984;2023-04-01T03:36:08;99107.06;;;8.70;84.15
79378;BME280;68959;53.132;17.984;2023-04-01T03:38:35;99109.02;;;8.69;84.05
79378;BME280;68959;53.132;17.984;2023-04-01T03:41:03;99107.85;;;8.66;84.04
79378;BME280;68959;53.132;17.984;2023-04-01T03:43:31;99108.67;;;8.62;84.19
79378;BME280;68959;53.132;17.984;2023-04-01T03:45:59;99112.34;;;8.60;84.17
79378;BME280;68959;53.132;17.984;2023-04-01T03:48:25;99110.15;;;8.60;84.18
79378;BME280;68959;53.132;17.984;2023-04-01T03:50:52;99114.50;;;8.63;83.89
79378;BME280;68959;53.132;17.984;2023-04-01T03:53:20;99120.51;;;8.63;84.16
79378;BME280;68959;53.132;17.984;2023-04-01T03:55:47;99121.17;;;8.60;84.26
79378;BME280;68959;53.132;17.984;2023-04-01T03:58:14;99124.81;;;8.55;84.12
79378;BME280;68959;53.132;17.984;2023-04-01T04:00:41;99128.29;;;8.51;84.15
79378;BME280;68959;53.132;17.984;2023-04-01T04:03:09;99130.73;;;8.47;84.25
79378;BME280;68959;53.132;17.984;2023-04-01T04:05:36;99131.52;;;8.38;84.15
79378;BME280;68959;53.132;17.984;2023-04-01T04:08:04;99140.18;;;8.32;84.13
79378;BME280;68959;53.132;17.984;2023-04-01T04:10:31;99140.99;;;8.27;84.34
79378;BME280;68959;53.132;17.984;2023-04-01T04:12:58;99143.23;;;8.22;84.30
79378;BME280;68959;53.132;17.984;2023-04-01T04:15:25;99146.85;;;8.19;84.57
79378;BME280;68959;53.132;17.984;2023-04-01T04:17:52;99148.90;;;8.15;84.63
79378;BME280;68959;53.132;17.984;2023-04-01T04:20:18;99151.65;;;8.14;84.70
79378;BME280;68959;53.132;17.984;2023-04-01T04:22:46;99157.09;;;8.12;84.68
79378;BME280;68959;53.132;17.984;2023-04-01T04:25:12;99156.84;;;8.09;84.84
79378;BME280;68959;53.132;17.984;2023-04-01T04:27:39;99157.45;;;8.05;84.79
79378;BME280;68959;53.132;17.984;2023-04-01T04:30:08;99158.56;;;8.03;84.74
79378;BME280;68959;53.132;17.984;2023-04-01T04:32:36;99164.05;;;8.01;84.85
79378;BME280;68959;53.132;17.984;2023-04-01T04:35:04;99163.35;;;7.98;84.89
79378;BME280;68959;53.132;17.984;2023-04-01T04:37:32;99167.63;;;7.94;84.94
79378;BME280;68959;53.132;17.984;2023-04-01T04:39:59;99171.89;;;7.88;85.06
79378;BME280;68959;53.132;17.984;2023-04-01T04:42:26;99173.70;;;7.84;85.13
79378;BME280;68959;53.132;17.984;2023-04-01T04:44:56;99177.17;;;7.78;84.82
79378;BME280;68959;53.132;17.984;2023-04-01T04:47:23;99180.19;;;7.73;85.00
79378;BME280;68959;53.132;17.984;2023-04-01T04:49:50;99181.84;;;7.68;85.12
79378;BME280;68959;53.132;17.984;2023-04-01T04:52:16;99188.23;;;7.67;84.81
79378;BME280;68959;53.132;17.984;2023-04-01T04:54:43;99185.57;;;7.67;84.87
79378;BME280;68959;53.132;17.984;2023-04-01T04:57:10;99187.63;;;7.66;84.87
79378;BME280;68959;53.132;17.984;2023-04-01T04:59:42;99191.25;;;7.68;84.98
79378;BME280;68959;53.132;17.984;2023-04-01T05:02:13;99194.53;;;7.64;84.81
79378;BME280;68959;53.132;17.984;2023-04-01T05:04:39;99197.13;;;7.63;84.80
79378;BME280;68959;53.132;17.984;2023-04-01T05:07:09;99200.95;;;7.60;84.78
79378;BME280;68959;53.132;17.984;2023-04-01T05:09:36;99203.14;;;7.55;84.56
79378;BME280;68959;53.132;17.984;2023-04-01T05:12:03;99204.17;;;7.51;84.57
79378;BME280;68959;53.132;17.984;2023-04-01T05:14:39;99205.16;;;7.51;84.42
79378;BME280;68959;53.132;17.984;2023-04-01T05:17:10;99209.61;;;7.51;84.63
79378;BME280;68959;53.132;17.984;2023-04-01T05:19:38;99215.61;;;7.49;84.71
79378;BME280;68959;53.132;17.984;2023-04-01T05:22:05;99217.77;;;7.49;84.74
79378;BME280;68959;53.132;17.984;2023-04-01T05:24:33;99223.54;;;7.49;84.91
79378;BME280;68959;53.132;17.984;2023-04-01T05:26:59;99225.07;;;7.51;85.05
79378;BME280;68959;53.132;17.984;2023-04-01T05:29:27;99228.20;;;7.50;85.14
79378;BME280;68959;53.132;17.984;2023-04-01T05:32:00;99229.41;;;7.46;85.34
79378;BME280;68959;53.132;17.984;2023-04-01T05:34:26;99228.62;;;7.39;84.89
79378;BME280;68959;53.132;17.984;2023-04-01T05:36:53;99226.79;;;7.35;84.85
79378;BME280;68959;53.132;17.984;2023-04-01T05:39:20;99228.48;;;7.30;84.73
79378;BME280;68959;53.132;17.984;2023-04-01T05:41:47;99230.14;;;7.30;84.69
79378;BME280;68959;53.132;17.984;2023-04-01T05:44:14;99233.16;;;7.31;84.40
79378;BME280;68959;53.132;17.984;2023-04-01T05:46:41;99238.77;;;7.29;84.43
79378;BME280;68959;53.132;17.984;2023-04-01T05:49:14;99237.79;;;7.30;84.25
79378;BME280;68959;53.132;17.984;2023-04-01T05:51:41;99240.76;;;7.29;84.07
79378;BME280;68959;53.132;17.984;2023-04-01T05:54:08;99248.73;;;7.28;84.03
79378;BME280;68959;53.132;17.984;2023-04-01T05:56:35;99246.60;;;7.26;83.90
79378;BME280;68959;53.132;17.984;2023-04-01T05:59:02;99252.23;;;7.30;83.99
79378;BME280;68959;53.132;17.984;2023-04-01T06:01:29;99249.40;;;7.35;83.71
79378;BME280;68959;53.132;17.984;2023-04-01T06:03:56;99254.70;;;7.37;83.77
79378;BME280;68959;53.132;17.984;2023-04-01T06:06:27;99255.95;;;7.35;83.58
79378;BME280;68959;53.132;17.984;2023-04-01T06:14:26;99265.23;;;7.42;83.54
79378;BME280;68959;53.132;17.984;2023-04-01T06:39:18;99290.13;;;7.72;82.58
79378;BME280;68959;53.132;17.984;2023-04-01T06:42:15;99289.66;;;7.69;82.43
79378;BME280;68959;53.132;17.984;2023-04-01T06:48:34;99295.35;;;7.80;82.12
79378;BME280;68959;53.132;17.984;2023-04-01T06:51:55;99296.77;;;7.89;81.96
79378;BME280;68959;53.132;17.984;2023-04-01T06:54:49;99297.05;;;7.94;81.42
79378;BME280;68959;53.132;17.984;2023-04-01T06:57:49;99303.02;;;7.97;81.84
79378;BME280;68959;53.132;17.984;2023-04-01T07:00:36;99303.48;;;8.00;81.77
79378;BME280;68959;53.132;17.984;2023-04-01T07:03:42;99302.01;;;8.03;81.85
79378;BME280;68959;53.132;17.984;2023-04-01T07:06:16;99309.61;;;8.04;81.39
79378;BME280;68959;53.132;17.984;2023-04-01T07:08:53;99309.94;;;8.04;81.22
79378;BME280;68959;53.132;17.984;2023-04-01T07:11:26;99315.74;;;8.01;81.02
79378;BME280;68959;53.132;17.984;2023-04-01T07:14:32;99326.77;;;7.99;81.25
79378;BME280;68959;53.132;17.984;2023-04-01T07:17:32;99325.20;;;8.02;81.09
79378;BME280;68959;53.132;17.984;2023-04-01T07:22:33;99325.59;;;8.07;80.66
79378;BME280;68959;53.132;17.984;2023-04-01T07:25:21;99332.13;;;8.09;80.40
79378;BME280;68959;53.132;17.984;2023-04-01T07:28:05;99333.13;;;8.09;79.88
79378;BME280;68959;53.132;17.984;2023-04-01T07:30:46;99333.99;;;8.09;80.09
79378;BME280;68959;53.132;17.984;2023-04-01T07:33:23;99332.73;;;8.14;79.87
79378;BME280;68959;53.132;17.984;2023-04-01T07:36:01;99329.68;;;8.22;79.90
79378;BME280;68959;53.132;17.984;2023-04-01T07:38:42;99330.98;;;8.27;79.54
79378;BME280;68959;53.132;17.984;2023-04-01T07:41:32;99337.08;;;8.31;79.82
79378;BME280;68959;53.132;17.984;2023-04-01T08:00:57;99374.98;;;8.19;79.67
79378;BME280;68959;53.132;17.984;2023-04-01T08:21:16;99406.27;;;7.96;79.45
79378;BME280;68959;53.132;17.984;2023-04-01T08:23:47;99405.31;;;7.99;79.36
79378;BME280;68959;53.132;17.984;2023-04-01T08:32:37;99412.91;;;8.07;78.79
79378;BME280;68959;53.132;17.984;2023-04-01T08:37:45;99417.13;;;8.23;78.13
79378;BME280;68959;53.132;17.984;2023-04-01T08:43:39;99420.90;;;8.49;77.96
79378;BME280;68959;53.132;17.984;2023-04-01T08:49:32;99423.05;;;8.92;77.21
79378;BME280;68959;53.132;17.984;2023-04-01T08:52:33;99425.25;;;9.02;76.31
79378;BME280;68959;53.132;17.984;2023-04-01T09:01:15;99439.16;;;9.34;75.60
79378;BME280;68959;53.132;17.984;2023-04-01T09:29:09;99458.76;;;9.50;74.23
79378;BME280;68959;53.132;17.984;2023-04-01T09:32:07;99462.08;;;9.45;74.01
79378;BME280;68959;53.132;17.984;2023-04-01T09:37:34;99469.91;;;9.31;74.36
79378;BME280;68959;53.132;17.984;2023-04-01T09:45:48;99486.65;;;9.05;74.81
79378;BME280;68959;53.132;17.984;2023-04-01T10:03:23;99501.27;;;9.23;73.30
79378;BME280;68959;53.132;17.984;2023-04-01T10:31:13;99519.15;;;9.61;73.13
79378;BME280;68959;53.132;17.984;2023-04-01T10:45:24;99527.64;;;9.66;72.38
79378;BME280;68959;53.132;17.984;2023-04-01T10:57:48;99535.94;;;10.25;71.46
79378;BME280;68959;53.132;17.984;2023-04-01T11:20:00;99556.81;;;10.34;70.23
79378;BME280;68959;53.132;17.984;2023-04-01T11:22:58;99556.41;;;10.46;70.19
79378;BME280;68959;53.132;17.984;2023-04-01T11:26:08;99562.52;;;10.41;69.33
79378;BME280;68959;53.132;17.984;2023-04-01T11:29:15;99563.51;;;10.20;69.67
79378;BME280;68959;53.132;17.984;2023-04-01T11:31:53;99572.00;;;10.08;70.52
79378;BME280;68959;53.132;17.984;2023-04-01T11:34:50;99574.42;;;10.00;70.50
79378;BME280;68959;53.132;17.984;2023-04-01T11:58:12;99607.54;;;9.74;69.47
79378;BME280;68959;53.132;17.984;2023-04-01T12:11:45;99620.56;;;9.31;70.48
79378;BME280;68959;53.132;17.984;2023-04-01T12:17:04;99622.14;;;9.35;70.74
79378;BME280;68959;53.132;17.984;2023-04-01T12:19:46;99632.65;;;9.53;70.81
79378;BME280;68959;53.132;17.984;2023-04-01T12:25:19;99635.48;;;9.93;69.82
79378;BME280;68959;53.132;17.984;2023-04-01T12:28:02;99639.20;;;9.90;69.51
79378;BME280;68959;53.132;17.984;2023-04-01T12:30:42;99642.80;;;9.84;69.16
79378;BME280;68959;53.132;17.984;2023-04-01T12:35:58;99650.55;;;9.58;69.44
79378;BME280;68959;53.132;17.984;2023-04-01T12:46:35;99660.32;;;9.73;69.05
79378;BME280;68959;53.132;17.984;2023-04-01T12:51:55;99663.42;;;10.12;68.54
79378;BME280;68959;53.132;17.984;2023-04-01T13:00:27;99673.41;;;10.37;67.23
79378;BME280;68959;53.132;17.984;2023-04-01T13:08:47;99683.47;;;10.54;66.82
79378;BME280;68959;53.132;17.984;2023-04-01T13:11:44;99683.73;;;10.55;66.29
79378;BME280;68959;53.132;17.984;2023-04-01T13:17:16;99695.57;;;10.37;66.15
79378;BME280;68959;53.132;17.984;2023-04-01T13:20:14;99702.52;;;10.35;66.49
79378;BME280;68959;53.132;17.984;2023-04-01T13:23:04;99707.24;;;10.36;65.67
79378;BME280;68959;53.132;17.984;2023-04-01T13:25:46;99707.55;;;10.29;66.06
79378;BME280;68959;53.132;17.984;2023-04-01T13:28:28;99710.07;;;10.26;65.86
79378;BME280;68959;53.132;17.984;2023-04-01T13:42:35;99718.05;;;9.96;66.95
79378;BME280;68959;53.132;17.984;2023-04-01T13:45:19;99719.73;;;9.99;66.52
79378;BME280;68959;53.132;17.984;2023-04-01T13:48:12;99726.17;;;9.95;66.72
79378;BME280;68959;53.132;17.984;2023-04-01T13:56:53;99737.19;;;9.58;66.95
79378;BME280;68959;53.132;17.984;2023-04-01T14:10:40;99757.23;;;9.28;67.50
79378;BME280;68959;53.132;17.984;2023-04-01T14:13:14;99762.08;;;9.20;67.68
79378;BME280;68959;53.132;17.984;2023-04-01T14:15:58;99763.40;;;9.15;68.01
79378;BME280;68959;53.132;17.984;2023-04-01T14:18:54;99765.52;;;9.10;67.90
79378;BME280;68959;53.132;17.984;2023-04-01T14:21:48;99766.69;;;9.00;67.92
79378;BME280;68959;53.132;17.984;2023-04-01T14:24:36;99771.98;;;8.88;67.89
79378;BME280;68959;53.132;17.984;2023-04-01T14:33:05;99776.08;;;8.72;68.10
79378;BME280;68959;53.132;17.984;2023-04-01T14:38:35;99787.92;;;8.64;68.54
79378;BME280;68959;53.132;17.984;2023-04-01T14:50:02;99806.65;;;8.45;68.42
79378;BME280;68959;53.132;17.984;2023-04-01T14:52:36;99808.62;;;8.35;68.86
79378;BME280;68959;53.132;17.984;2023-04-01T14:58:08;99818.42;;;8.18;68.85
79378;BME280;68959;53.132;17.984;2023-04-01T15:03:30;99826.59;;;8.14;69.46
79378;BME280;68959;53.132;17.984;2023-04-01T15:11:58;99841.56;;;8.06;69.18
79378;BME280;68959;53.132;17.984;2023-04-01T15:25:41;99865.56;;;7.62;69.77
79378;BME280;68959;53.132;17.984;2023-04-01T15:31:35;99872.53;;;7.52;70.08
79378;BME280;68959;53.132;17.984;2023-04-01T15:39:48;99885.64;;;7.37;70.24
79378;BME280;68959;53.132;17.984;2023-04-01T15:53:49;99907.49;;;6.98;70.45
79378;BME280;68959;53.132;17.984;2023-04-01T15:56:44;99911.90;;;6.89;70.61
79378;BME280;68959;53.132;17.984;2023-04-01T15:59:38;99915.17;;;6.84;71.02
79378;BME280;68959;53.132;17.984;2023-04-01T16:05:20;99921.29;;;6.76;71.14
79378;BME280;68959;53.132;17.984;2023-04-01T16:10:38;99933.08;;;6.65;71.39
79378;BME280;68959;53.132;17.984;2023-04-01T16:13:22;99935.38;;;6.54;71.81
79378;BME280;68959;53.132;17.984;2023-04-01T16:21:24;99950.75;;;6.38;72.13
79378;BME280;68959;53.132;17.984;2023-04-01T16:24:05;99962.20;;;6.36;72.09
79378;BME280;68959;53.132;17.984;2023-04-01T16:27:03;99963.17;;;6.31;71.81
79378;BME280;68959;53.132;17.984;2023-04-01T16:32:41;99976.31;;;6.22;71.69
79378;BME280;68959;53.132;17.984;2023-04-01T16:41:34;99989.54;;;6.10;72.13
79378;BME280;68959;53.132;17.984;2023-04-01T16:44:22;99997.52;;;6.07;72.21
79378;BME280;68959;53.132;17.984;2023-04-01T16:46:56;100003.25;;;6.03;72.26
79378;BME280;68959;53.132;17.984;2023-04-01T16:49:29;100011.04;;;6.01;72.55
79378;BME280;68959;53.132;17.984;2023-04-01T16:54:52;100016.86;;;5.88;72.70
79378;BME280;68959;53.132;17.984;2023-04-01T16:57:28;100023.48;;;5.84;73.01
79378;BME280;68959;53.132;17.984;2023-04-01T17:00:15;100021.14;;;5.84;73.03
79378;BME280;68959;53.132;17.984;2023-04-01T17:11:59;100048.42;;;5.53;72.12
79378;BME280;68959;53.132;17.984;2023-04-01T17:20:19;100058.98;;;5.38;72.40
79378;BME280;68959;53.132;17.984;2023-04-01T17:23:14;100061.98;;;5.33;72.39
79378;BME280;68959;53.132;17.984;2023-04-01T17:29:17;100071.25;;;5.29;72.61
79378;BME280;68959;53.132;17.984;2023-04-01T17:37:51;100085.17;;;5.15;72.45
79378;BME280;68959;53.132;17.984;2023-04-01T17:40:49;100092.83;;;5.11;72.62
79378;BME280;68959;53.132;17.984;2023-04-01T17:43:29;100096.77;;;5.06;72.72
79378;BME280;68959;53.132;17.984;2023-04-01T17:51:40;100115.15;;;4.90;73.51
79378;BME280;68959;53.132;17.984;2023-04-01T17:54:35;100125.19;;;4.87;73.82
79378;BME280;68959;53.132;17.984;2023-04-01T17:57:10;100126.02;;;4.82;74.01
79378;BME280;68959;53.132;17.984;2023-04-01T18:02:44;100133.03;;;4.78;74.66
79378;BME280;68959;53.132;17.984;2023-04-01T18:05:26;100136.09;;;4.77;74.99
79378;BME280;68959;53.132;17.984;2023-04-01T18:08:12;100142.08;;;4.76;74.84
79378;BME280;68959;53.132;17.984;2023-04-01T18:10:46;100145.87;;;4.70;75.11
79378;BME280;68959;53.132;17.984;2023-04-01T18:13:26;100150.03;;;4.70;75.14
79378;BME280;68959;53.132;17.984;2023-04-01T18:24:33;100171.36;;;4.54;75.77
79378;BME280;68959;53.132;17.984;2023-04-01T18:27:04;100171.61;;;4.50;76.29
79378;BME280;68959;53.132;17.984;2023-04-01T18:29:54;100177.77;;;4.48;76.32
79378;BME280;68959;53.132;17.984;2023-04-01T18:32:26;100180.70;;;4.47;76.47
79378;BME280;68959;53.132;17.984;2023-04-01T18:35:01;100181.77;;;4.45;76.85
79378;BME280;68959;53.132;17.984;2023-04-01T18:38:00;100189.14;;;4.42;76.67
79378;BME280;68959;53.132;17.984;2023-04-01T18:40:35;100190.95;;;4.39;76.79
79378;BME280;68959;53.132;17.984;2023-04-01T18:45:57;100193.96;;;4.32;77.74
79378;BME280;68959;53.132;17.984;2023-04-01T18:51:44;100207.38;;;4.30;77.65
79378;BME280;68959;53.132;17.984;2023-04-01T18:54:31;100204.23;;;4.24;78.30
79378;BME280;68959;53.132;17.984;2023-04-01T18:57:04;100209.45;;;4.19;78.46
79378;BME280;68959;53.132;17.984;2023-04-01T19:02:31;100220.25;;;4.13;78.70
79378;BME280;68959;53.132;17.984;2023-04-01T19:05:09;100224.05;;;4.08;78.78
79378;BME280;68959;53.132;17.984;2023-04-01T19:07:52;100227.48;;;4.03;78.80
79378;BME280;68959;53.132;17.984;2023-04-01T19:22:18;100246.01;;;3.92;79.25
79378;BME280;68959;53.132;17.984;2023-04-01T19:25:02;100250.05;;;3.94;79.54
79378;BME280;68959;53.132;17.984;2023-04-01T19:27:46;100255.08;;;3.91;79.27
79378;BME280;68959;53.132;17.984;2023-04-01T19:30:27;100262.16;;;3.90;79.52
79378;BME280;68959;53.132;17.984;2023-04-01T19:33:18;100267.54;;;3.89;79.65
79378;BME280;68959;53.132;17.984;2023-04-01T19:38:38;100276.34;;;3.79;80.11
79378;BME280;68959;53.132;17.984;2023-04-01T19:41:21;100282.31;;;3.79;80.16
79378;BME280;68959;53.132;17.984;2023-04-01T19:46:44;100282.98;;;3.75;80.03
79378;BME280;68959;53.132;17.984;2023-04-01T19:52:01;100290.39;;;3.74;80.38
79378;BME280;68959;53.132;17.984;2023-04-01T19:57:42;100300.98;;;3.71;80.30
79378;BME280;68959;53.132;17.984;2023-04-01T20:00:15;100298.33;;;3.65;80.43
79378;BME280;68959;53.132;17.984;2023-04-01T20:03:07;100304.02;;;3.65;80.33
79378;BME280;68959;53.132;17.984;2023-04-01T20:05:50;100303.95;;;3.64;80.43
79378;BME280;68959;53.132;17.984;2023-04-01T20:14:01;100315.52;;;3.59;80.91
79378;BME280;68959;53.132;17.984;2023-04-01T20:19:28;100325.66;;;3.61;80.61
79378;BME280;68959;53.132;17.984;2023-04-01T20:21:58;100328.98;;;3.60;80.65
79378;BME280;68959;53.132;17.984;2023-04-01T20:24:33;100339.47;;;3.60;80.88
79378;BME280;68959;53.132;17.984;2023-04-01T20:27:22;100332.94;;;3.61;80.80
79378;BME280;68959;53.132;17.984;2023-04-01T20:49:41;100353.70;;;3.48;80.90
79378;BME280;68959;53.132;17.984;2023-04-01T21:03:10;100367.41;;;3.51;80.19
79378;BME280;68959;53.132;17.984;2023-04-01T21:11:20;100372.33;;;3.49;80.37
79378;BME280;68959;53.132;17.984;2023-04-01T21:16:51;100380.69;;;3.51;80.05
79378;BME280;68959;53.132;17.984;2023-04-01T21:19:53;100380.10;;;3.52;79.94
79378;BME280;68959;53.132;17.984;2023-04-01T21:22:28;100389.95;;;3.46;80.13
79378;BME280;68959;53.132;17.984;2023-04-01T21:25:22;100391.41;;;3.41;80.14
79378;BME280;68959;53.132;17.984;2023-04-01T21:30:42;100401.14;;;3.40;80.07
79378;BME280;68959;53.132;17.984;2023-04-01T21:36:15;100398.80;;;3.36;80.21
79378;BME280;68959;53.132;17.984;2023-04-01T21:41:41;100406.27;;;3.38;80.56
79378;BME280;68959;53.132;17.984;2023-04-01T21:44:13;100406.73;;;3.38;80.35
79378;BME280;68959;53.132;17.984;2023-04-01T21:47:01;100407.37;;;3.37;79.78
79378;BME280;68959;53.132;17.984;2023-04-01T21:50:14;100412.54;;;3.36;80.16
79378;BME280;68959;53.132;17.984;2023-04-01T21:53:18;100415.27;;;3.40;80.12
79378;BME280;68959;53.132;17.984;2023-04-01T22:01:42;100422.83;;;3.41;79.68
79378;BME280;68959;53.132;17.984;2023-04-01T22:04:30;100427.23;;;3.43;79.68
79378;BME280;68959;53.132;17.984;2023-04-01T22:07:18;100426.55;;;3.41;80.10
79378;BME280;68959;53.132;17.984;2023-04-01T22:10:10;100425.77;;;3.38;80.01
79378;BME280;68959;53.132;17.984;2023-04-01T22:13:11;100428.33;;;3.40;79.59
79378;BME280;68959;53.132;17.984;2023-04-01T22:18:24;100426.84;;;3.39;80.02
79378;BME280;68959;53.132;17.984;2023-04-01T22:21:09;100435.80;;;3.44;79.80
79378;BME280;68959;53.132;17.984;2023-04-01T22:23:50;100435.25;;;3.48;79.50
79378;BME280;68959;53.132;17.984;2023-04-01T22:26:34;100439.47;;;3.46;79.65
79378;BME280;68959;53.132;17.984;2023-04-01T22:31:49;100449.42;;;3.42;79.98
79378;BME280;68959;53.132;17.984;2023-04-01T22:34:35;100450.80;;;3.42;79.77
79378;BME280;68959;53.132;17.984;2023-04-01T22:42:45;100456.70;;;3.49;79.49
79378;BME280;68959;53.132;17.984;2023-04-01T22:47:49;100461.23;;;3.47;79.47
79378;BME280;68959;53.132;17.984;2023-04-01T22:50:38;100465.80;;;3.47;79.62